createdAt,value
2023-09-05T00:01:55.327Z,102280.75
2023-09-05T00:04:23.090Z,102278.16
2023-09-05T00:06:50.849Z,102269.16
2023-09-05T00:09:20.471Z,102273.91
2023-09-05T00:11:48.411Z,102269.00
2023-09-05T00:14:19.486Z,102268.53
2023-09-05T00:16:47.282Z,102272.97
2023-09-05T00:19:15.026Z,102269.16
2023-09-05T00:21:42.763Z,102259.13
2023-09-05T00:24:28.987Z,102264.72
2023-09-05T00:26:57.145Z,102263.22
2023-09-05T00:29:25.496Z,102249.16
2023-09-05T00:31:54.499Z,102257.47
2023-09-05T00:34:22.348Z,102248.28
2023-09-05T00:36:50.166Z,102239.97
2023-09-05T00:39:18.482Z,102240.44
2023-09-05T00:41:48.068Z,102241.25
2023-09-05T00:44:16.206Z,102239.16
2023-09-05T00:46:46.430Z,102230.56
2023-09-05T00:49:17.289Z,102234.38
2023-09-05T00:51:47.171Z,102233.53
2023-09-05T00:54:15.103Z,102232.69
2023-09-05T00:56:42.999Z,102235.47
2023-09-05T00:59:12.458Z,102228.84
2023-09-05T01:01:40.403Z,102218.84
2023-09-05T01:04:08.530Z,102230.97
2023-09-05T01:06:55.173Z,102225.84
2023-09-05T01:09:31.644Z,102226.47
2023-09-05T01:12:00.318Z,102230.91
2023-09-05T01:14:29.447Z,102218.97
2023-09-05T01:17:02.337Z,102220.88
2023-09-05T01:19:31.454Z,102218.28
2023-09-05T01:22:08.386Z,102212.78
2023-09-05T01:24:40.049Z,102211.63
2023-09-05T01:27:09.214Z,102207.34
2023-09-05T01:29:40.324Z,102205.22
2023-09-05T01:32:10.887Z,102210.97
2023-09-05T01:34:39.374Z,102199.91
2023-09-05T01:37:11.725Z,102194.38
2023-09-05T01:39:42.017Z,102201.81
2023-09-05T01:42:09.913Z,102190.75
2023-09-05T01:44:40.086Z,102191.78
2023-09-05T01:47:08.592Z,102196.50
2023-09-05T01:49:36.617Z,102194.56
2023-09-05T01:52:04.836Z,102194.38
2023-09-05T01:54:32.744Z,102188.81
2023-09-05T01:57:01.896Z,102199.69
2023-09-05T01:59:29.668Z,102189.69
2023-09-05T02:01:57.476Z,102191.59
2023-09-05T02:04:25.367Z,102189.22
2023-09-05T02:06:53.344Z,102186.25
2023-09-05T02:09:21.109Z,102191.78
2023-09-05T02:11:48.899Z,102191.59
2023-09-05T02:14:18.037Z,102186.47
2023-09-05T02:16:46.015Z,102185.16
2023-09-05T02:19:14.958Z,102181.06
2023-09-05T02:21:42.698Z,102181.28
2023-09-05T02:24:10.475Z,102170.19
2023-09-05T02:26:38.821Z,102171.06
2023-09-05T02:29:07.164Z,102183.81
2023-09-05T02:31:36.512Z,102176.59
2023-09-05T02:34:04.350Z,102176.13
2023-09-05T02:36:32.606Z,102178.22
2023-09-05T02:39:00.342Z,102178.91
2023-09-05T02:41:28.094Z,102179.94
2023-09-05T02:43:55.893Z,102174.13
2023-09-05T02:46:23.791Z,102171.38
2023-09-05T02:48:53.003Z,102167.97
2023-09-05T02:51:20.759Z,102158.63
2023-09-05T02:53:49.595Z,102164.16
2023-09-05T02:56:18.892Z,102159.47
2023-09-05T02:58:46.643Z,102161.38
2023-09-05T03:01:14.507Z,102162.44
2023-09-05T03:03:42.384Z,102158.34
2023-09-05T03:06:12.456Z,102169.94
2023-09-05T03:08:43.055Z,102160.59
2023-09-05T03:11:10.987Z,102158.03
2023-09-05T03:13:39.485Z,102165.47
2023-09-05T03:16:07.349Z,102160.53
2023-09-05T03:18:36.570Z,102154.81
2023-09-05T03:21:04.573Z,102155.84
2023-09-05T03:23:33.866Z,102153.47
2023-09-05T03:26:01.833Z,102149.66
2023-09-05T03:28:40.595Z,102151.34
2023-09-05T03:31:10.965Z,102146.69
2023-09-05T03:33:39.144Z,102147.94
2023-09-05T03:36:07.561Z,102140.69
2023-09-05T03:38:36.930Z,102147.09
2023-09-05T03:41:04.844Z,102140.69
2023-09-05T03:43:32.665Z,102143.66
2023-09-05T03:46:00.471Z,102144.06
2023-09-05T03:48:28.530Z,102148.75
2023-09-05T03:50:56.376Z,102145.28
2023-09-05T03:53:24.673Z,102146.16
2023-09-05T03:55:54.089Z,102153.59
2023-09-05T03:58:22.220Z,102149.78
2023-09-05T04:00:50.003Z,102148.06
2023-09-05T04:03:18.464Z,102153.19
2023-09-05T04:05:46.354Z,102149.78
2023-09-05T04:08:14.124Z,102146.38
2023-09-05T04:10:41.956Z,102143.16
2023-09-05T04:13:11.058Z,102144.66
2023-09-05T04:15:38.941Z,102149.97
2023-09-05T04:18:07.270Z,102150.97
2023-09-05T04:20:36.910Z,102150.97
2023-09-05T04:23:05.840Z,102146.66
2023-09-05T04:25:33.891Z,102147.94
2023-09-05T04:28:01.809Z,102142.78
2023-09-05T04:30:31.026Z,102144.41
2023-09-05T04:32:59.074Z,102138.88
2023-09-05T04:35:27.003Z,102136.78
2023-09-05T04:37:55.623Z,102136.97
2023-09-05T04:40:23.783Z,102145.47
2023-09-05T04:42:51.970Z,102138.19
2023-09-05T04:45:19.776Z,102144.59
2023-09-05T04:47:49.018Z,102136.69
2023-09-05T04:50:16.781Z,102140.97
2023-09-05T04:52:44.491Z,102130.31
2023-09-05T04:55:12.275Z,102135.84
2023-09-05T04:57:43.414Z,102122.63
2023-09-05T05:00:14.755Z,102133.69
2023-09-05T05:02:42.961Z,102137.75
2023-09-05T05:05:13.055Z,102131.56
2023-09-05T05:07:42.107Z,102138.41
2023-09-05T05:10:10.371Z,102130.13
2023-09-05T05:12:38.252Z,102132.88
2023-09-05T05:15:07.061Z,102138.59
2023-09-05T05:17:35.234Z,102139.47
2023-09-05T05:20:04.881Z,102130.50
2023-09-05T05:22:34.079Z,102133.94
2023-09-05T05:25:01.889Z,102133.28
2023-09-05T05:27:30.192Z,102134.31
2023-09-05T05:29:58.222Z,102127.06
2023-09-05T05:32:26.014Z,102134.97
2023-09-05T05:34:54.209Z,102123.25
2023-09-05T05:37:22.091Z,102124.69
2023-09-05T05:39:52.010Z,102121.28
2023-09-05T05:42:20.909Z,102123.00
2023-09-05T05:44:48.698Z,102132.13
2023-09-05T05:47:16.448Z,102124.53
2023-09-05T05:49:45.161Z,102128.63
2023-09-05T05:54:40.683Z,102122.00
2023-09-05T05:57:09.836Z,102124.19
2023-09-05T05:59:37.936Z,102116.75
2023-09-05T06:02:06.601Z,102121.72
2023-09-05T06:04:34.442Z,102121.53
2023-09-05T06:07:02.470Z,102127.53
2023-09-05T06:09:30.505Z,102126.00
2023-09-05T06:11:59.385Z,102123.25
2023-09-05T06:14:28.879Z,102123.03
2023-09-05T06:16:56.796Z,102125.63
2023-09-05T06:19:24.556Z,102124.94
2023-09-05T06:21:52.560Z,102123.25
2023-09-05T06:24:21.647Z,102127.13
2023-09-05T06:26:49.538Z,102132.84
2023-09-05T06:29:17.329Z,102131.78
2023-09-05T06:31:48.921Z,102139.31
2023-09-05T06:34:17.590Z,102133.59
2023-09-05T06:36:45.490Z,102134.44
2023-09-05T06:39:13.372Z,102140.03
2023-09-05T06:41:42.690Z,102138.59
2023-09-05T06:44:10.483Z,102138.84
2023-09-05T06:46:39.161Z,102143.97
2023-09-05T06:49:08.324Z,102145.94
2023-09-05T06:51:36.475Z,102145.75
2023-09-05T06:54:04.449Z,102143.00
2023-09-05T06:56:32.272Z,102137.91
2023-09-05T06:59:01.204Z,102135.59
2023-09-05T07:01:30.453Z,102131.34
2023-09-05T07:03:58.536Z,102130.25
2023-09-05T07:06:27.689Z,102132.38
2023-09-05T07:08:55.452Z,102141.94
2023-09-05T07:11:23.315Z,102146.41
2023-09-05T07:13:51.499Z,102141.31
2023-09-05T07:16:19.433Z,102135.59
2023-09-05T07:18:47.416Z,102137.31
2023-09-05T07:21:15.365Z,102150.16
2023-09-05T07:23:44.547Z,102142.97
2023-09-05T07:26:12.571Z,102140.44
2023-09-05T07:28:41.036Z,102139.84
2023-09-05T07:31:08.903Z,102145.56
2023-09-05T07:33:36.997Z,102146.03
2023-09-05T07:36:05.164Z,102151.19
2023-09-05T07:38:32.944Z,102148.22
2023-09-05T07:41:06.013Z,102149.34
2023-09-05T07:43:34.942Z,102149.78
2023-09-05T07:46:03.269Z,102150.69
2023-09-05T07:48:31.165Z,102142.41
2023-09-05T07:51:03.071Z,102137.13
2023-09-05T07:53:31.032Z,102133.75
2023-09-05T07:55:58.861Z,102142.50
2023-09-05T07:58:29.984Z,102141.22
2023-09-05T08:00:58.351Z,102141.03
2023-09-05T08:03:27.699Z,102146.16
2023-09-05T08:05:55.732Z,102148.34
2023-09-05T08:08:24.146Z,102153.06
2023-09-05T08:10:52.183Z,102140.69
2023-09-05T08:13:20.102Z,102152.22
2023-09-05T08:15:49.398Z,102149.91
2023-09-05T08:18:17.316Z,102149.94
2023-09-05T08:20:45.375Z,102148.94
2023-09-05T08:23:13.455Z,102150.25
2023-09-05T08:25:41.472Z,102145.97
2023-09-05T08:28:10.446Z,102143.63
2023-09-05T08:30:38.795Z,102144.50
2023-09-05T08:33:08.112Z,102147.09
2023-09-05T08:35:38.307Z,102147.72
2023-09-05T08:38:07.191Z,102140.28
2023-09-05T08:40:35.551Z,102139.66
2023-09-05T08:43:03.573Z,102139.66
2023-09-05T08:45:33.110Z,102130.94
2023-09-05T08:48:01.573Z,102129.22
2023-09-05T08:50:33.118Z,102123.47
2023-09-05T08:53:05.723Z,102123.91
2023-09-05T08:55:33.751Z,102129.91
2023-09-05T08:58:02.622Z,102129.47
2023-09-05T09:00:30.474Z,102131.16
2023-09-05T09:03:00.648Z,102139.09
2023-09-05T09:05:29.458Z,102130.16
2023-09-05T09:07:58.989Z,102132.94
2023-09-05T09:10:26.870Z,102134.84
2023-09-05T09:12:56.392Z,102141.50
2023-09-05T09:15:27.174Z,102145.75
2023-09-05T09:17:55.252Z,102128.66
2023-09-05T09:20:24.686Z,102120.97
2023-09-05T09:22:53.976Z,102128.03
2023-09-05T09:25:23.380Z,102124.63
2023-09-05T09:27:54.641Z,102126.97
2023-09-05T09:30:26.637Z,102128.00
2023-09-05T09:32:55.343Z,102122.63
2023-09-05T09:35:24.508Z,102133.34
2023-09-05T09:37:52.260Z,102129.91
2023-09-05T09:40:20.134Z,102134.41
2023-09-05T09:42:51.221Z,102132.47
2023-09-05T09:45:19.939Z,102135.03
2023-09-05T09:47:50.028Z,102141.66
2023-09-05T09:50:19.176Z,102126.66
2023-09-05T09:52:49.636Z,102131.13
2023-09-05T09:55:18.624Z,102130.22
2023-09-05T09:57:57.173Z,102132.56
2023-09-05T10:00:25.750Z,102122.69
2023-09-05T10:02:55.398Z,102120.09
2023-09-05T10:05:24.993Z,102116.44
2023-09-05T10:07:54.213Z,102115.38
2023-09-05T10:10:22.851Z,102103.59
2023-09-05T10:12:53.933Z,102100.34
2023-09-05T10:15:22.944Z,102107.16
2023-09-05T10:17:52.604Z,102099.00
2023-09-05T10:20:26.063Z,102091.66
2023-09-05T10:22:55.553Z,102089.94
2023-09-05T10:25:26.891Z,102095.50
2023-09-05T10:27:56.414Z,102083.91
2023-09-05T10:30:24.375Z,102084.78
2023-09-05T10:32:54.926Z,102077.59
2023-09-05T10:35:23.768Z,102073.75
2023-09-05T10:37:53.716Z,102066.25
2023-09-05T10:40:34.232Z,102069.84
2023-09-05T10:43:05.084Z,102063.81
2023-09-05T10:45:34.951Z,102061.44
2023-09-05T10:48:07.231Z,102067.97
2023-09-05T10:51:09.957Z,102062.81
2023-09-05T10:53:39.027Z,102062.81
2023-09-05T10:56:07.261Z,102057.25
2023-09-05T10:58:44.624Z,102051.38
2023-09-05T11:01:47.003Z,102051.53
2023-09-05T11:04:27.489Z,102045.28
2023-09-05T11:06:57.264Z,102051.72
2023-09-05T11:09:25.978Z,102041.81
2023-09-05T11:11:55.031Z,102045.59
2023-09-05T11:14:35.869Z,102051.88
2023-09-05T11:17:04.786Z,102049.25
2023-09-05T11:19:39.167Z,102038.25
2023-09-05T11:22:12.618Z,102038.59
2023-09-05T11:24:46.259Z,102050.16
2023-09-05T11:27:19.187Z,102051.91
2023-09-05T11:29:51.026Z,102049.63
2023-09-05T11:32:19.037Z,102049.28
2023-09-05T11:34:48.440Z,102049.03
2023-09-05T11:37:21.410Z,102049.53
2023-09-05T11:39:50.870Z,102043.66
2023-09-05T11:42:23.847Z,102041.84
2023-09-05T11:44:54.922Z,102030.28
2023-09-05T11:47:24.429Z,102041.69
2023-09-05T11:49:54.152Z,102042.31
2023-09-05T11:52:24.646Z,102038.47
2023-09-05T11:54:55.034Z,102035.56
2023-09-05T11:57:24.386Z,102024.78
2023-09-05T11:59:53.655Z,102021.28
2023-09-05T12:02:21.535Z,102026.28
2023-09-05T12:04:50.175Z,102027.03
2023-09-05T12:07:20.239Z,102037.09
2023-09-05T12:09:49.315Z,102025.22
2023-09-05T12:12:21.003Z,102022.72
2023-09-05T12:14:54.422Z,102026.25
2023-09-05T12:17:24.315Z,102029.13
2023-09-05T12:19:54.082Z,102021.00
2023-09-05T12:22:23.865Z,102025.00
2023-09-05T12:25:11.267Z,102022.44
2023-09-05T12:27:41.197Z,102021.81
2023-09-05T12:30:25.917Z,102026.31
2023-09-05T12:32:55.798Z,102021.31
2023-09-05T12:35:23.849Z,102015.84
2023-09-05T12:37:51.588Z,102013.09
2023-09-05T12:40:19.502Z,102022.69
2023-09-05T12:42:47.332Z,102009.88
2023-09-05T12:45:16.614Z,102011.44
2023-09-05T12:47:44.782Z,102010.81
2023-09-05T12:50:16.236Z,101997.44
2023-09-05T12:52:45.149Z,102000.44
2023-09-05T12:55:13.542Z,101993.47
2023-09-05T12:57:42.211Z,101995.00
2023-09-05T13:00:12.220Z,101986.69
2023-09-05T13:02:41.925Z,101980.91
2023-09-05T13:05:10.235Z,101976.22
2023-09-05T13:07:38.794Z,101979.72
2023-09-05T13:10:07.858Z,101982.13
2023-09-05T13:12:35.985Z,101980.25
2023-09-05T13:15:04.198Z,101973.38
2023-09-05T13:17:33.468Z,101979.66
2023-09-05T13:20:04.646Z,101968.66
2023-09-05T13:22:32.441Z,101967.03
2023-09-05T13:25:00.780Z,101965.81
2023-09-05T13:27:28.558Z,101966.00
2023-09-05T13:29:57.010Z,101961.03
2023-09-05T13:32:24.828Z,101960.50
2023-09-05T13:34:52.635Z,101956.09
2023-09-05T13:37:21.725Z,101957.66
2023-09-05T13:39:49.607Z,101953.84
2023-09-05T13:42:17.847Z,101955.88
2023-09-05T13:44:45.671Z,101953.97
2023-09-05T13:47:13.602Z,101950.63
2023-09-05T13:49:41.377Z,101951.31
2023-09-05T13:52:10.444Z,101946.13
2023-09-05T13:54:40.340Z,101941.13
2023-09-05T13:57:08.892Z,101937.75
2023-09-05T13:59:36.817Z,101933.56
2023-09-05T14:02:05.494Z,101931.72
2023-09-05T14:04:33.346Z,101927.28
2023-09-05T14:07:01.740Z,101935.13
2023-09-05T14:09:29.566Z,101930.78
2023-09-05T14:11:58.667Z,101927.47
2023-09-05T14:14:26.586Z,101935.91
2023-09-05T14:16:56.139Z,101930.91
2023-09-05T14:19:24.705Z,101927.88
2023-09-05T14:21:52.592Z,101922.28
2023-09-05T14:24:20.519Z,101919.75
2023-09-05T14:26:48.649Z,101914.97
2023-09-05T14:29:17.803Z,101925.16
2023-09-05T14:31:45.705Z,101917.31
2023-09-05T14:34:13.604Z,101914.91
2023-09-05T14:36:41.484Z,101917.97
2023-09-05T14:39:09.354Z,101922.25
2023-09-05T14:41:37.185Z,101919.69
2023-09-05T14:44:06.031Z,101928.97
2023-09-05T14:46:35.652Z,101909.34
2023-09-05T14:49:03.941Z,101920.03
2023-09-05T14:51:31.900Z,101909.09
2023-09-05T14:53:59.690Z,101915.84
2023-09-05T14:56:27.457Z,101909.34
2023-09-05T14:58:55.315Z,101913.50
2023-09-05T15:01:23.222Z,101919.66
2023-09-05T15:03:52.495Z,101912.38
2023-09-05T15:06:20.342Z,101914.09
2023-09-05T15:08:48.166Z,101917.78
2023-09-05T15:11:16.987Z,101913.00
2023-09-05T15:13:48.338Z,101909.03
2023-09-05T15:16:16.179Z,101909.88
2023-09-05T15:18:44.005Z,101905.91
2023-09-05T15:21:13.190Z,101901.81
2023-09-05T15:23:40.905Z,101905.63
2023-09-05T15:26:08.965Z,101900.38
2023-09-05T15:28:36.934Z,101891.41
2023-09-05T15:31:06.149Z,101888.28
2023-09-05T15:33:34.388Z,101884.91
2023-09-05T15:36:02.918Z,101884.59
2023-09-05T15:38:32.723Z,101885.66
2023-09-05T15:41:00.529Z,101891.59
2023-09-05T15:43:28.419Z,101885.63
2023-09-05T15:46:00.047Z,101889.56
2023-09-05T15:48:30.568Z,101884.69
2023-09-05T15:50:58.713Z,101887.78
2023-09-05T15:53:31.908Z,101894.59
2023-09-05T15:56:01.011Z,101885.28
2023-09-05T15:58:29.111Z,101890.66
2023-09-05T16:00:58.833Z,101882.75
2023-09-05T16:03:29.729Z,101882.44
2023-09-05T16:06:00.103Z,101888.41
2023-09-05T16:08:29.636Z,101883.34
2023-09-05T16:11:10.094Z,101887.34
2023-09-05T16:13:38.418Z,101888.75
2023-09-05T16:16:08.240Z,101889.94
2023-09-05T16:18:38.018Z,101890.84
2023-09-05T16:21:06.739Z,101879.84
2023-09-05T16:23:34.825Z,101879.84
2023-09-05T16:26:02.807Z,101893.66
2023-09-05T16:28:32.019Z,101892.47
2023-09-05T16:30:59.884Z,101893.88
2023-09-05T16:33:29.513Z,101897.72
2023-09-05T16:36:01.817Z,101888.63
2023-09-05T16:38:30.024Z,101889.44
2023-09-05T16:40:58.443Z,101888.25
2023-09-05T16:43:26.434Z,101884.81
2023-09-05T16:45:58.240Z,101882.72
2023-09-05T16:48:27.029Z,101886.91
2023-09-05T16:50:55.188Z,101887.69
2023-09-05T16:53:23.431Z,101882.00
2023-09-05T16:55:51.557Z,101885.88
2023-09-05T16:58:19.338Z,101888.06
2023-09-05T17:00:47.216Z,101884.91
2023-09-05T17:03:16.574Z,101889.34
2023-09-05T17:05:44.632Z,101885.38
2023-09-05T17:08:12.502Z,101878.03
2023-09-05T17:10:40.408Z,101879.13
2023-09-05T17:13:10.345Z,101884.41
2023-09-05T17:15:38.317Z,101884.09
2023-09-05T17:18:06.822Z,101887.13
2023-09-05T17:20:36.101Z,101880.91
2023-09-05T17:23:04.399Z,101880.06
2023-09-05T17:25:32.236Z,101879.75
2023-09-05T17:28:00.117Z,101878.88
2023-09-05T17:30:29.182Z,101876.34
2023-09-05T17:32:57.973Z,101874.84
2023-09-05T17:35:25.951Z,101874.53
2023-09-05T17:37:55.064Z,101867.25
2023-09-05T17:40:22.845Z,101873.66
2023-09-05T17:42:50.669Z,101874.44
2023-09-05T17:45:20.492Z,101875.28
2023-09-05T17:47:48.828Z,101872.44
2023-09-05T17:50:16.797Z,101871.94
2023-09-05T17:52:44.493Z,101867.59
2023-09-05T17:55:13.701Z,101875.84
2023-09-05T17:57:42.708Z,101877.94
2023-09-05T18:00:11.504Z,101866.06
2023-09-05T18:02:44.554Z,101876.63
2023-09-05T18:05:12.357Z,101874.53
2023-09-05T18:07:42.574Z,101876.91
2023-09-05T18:10:13.344Z,101872.34
2023-09-05T18:12:41.403Z,101879.22
2023-09-05T18:15:11.518Z,101869.31
2023-09-05T18:17:39.557Z,101873.72
2023-09-05T18:20:09.117Z,101874.75
2023-09-05T18:22:37.660Z,101879.16
2023-09-05T18:25:05.847Z,101875.94
2023-09-05T18:27:35.028Z,101877.63
2023-09-05T18:30:03.676Z,101881.72
2023-09-05T18:32:31.636Z,101881.13
2023-09-05T18:34:59.430Z,101875.09
2023-09-05T18:37:28.326Z,101877.56
2023-09-05T18:39:56.190Z,101880.84
2023-09-05T18:42:25.059Z,101876.25
2023-09-05T18:44:54.901Z,101884.91
2023-09-05T18:47:22.748Z,101885.91
2023-09-05T18:49:50.467Z,101885.81
2023-09-05T18:52:18.403Z,101885.81
2023-09-05T18:54:46.256Z,101899.31
2023-09-05T18:57:14.103Z,101905.16
2023-09-05T18:59:42.139Z,101898.03
2023-09-05T19:02:12.294Z,101898.88
2023-09-05T19:04:40.223Z,101910.22
2023-09-05T19:07:09.961Z,101907.81
2023-09-05T19:09:38.067Z,101909.41
2023-09-05T19:12:07.375Z,101914.44
2023-09-05T19:14:35.586Z,101907.13
2023-09-05T19:17:03.533Z,101908.38
2023-09-05T19:19:33.688Z,101913.13
2023-09-05T19:22:03.657Z,101911.31
2023-09-05T19:24:32.420Z,101913.25
2023-09-05T19:27:00.262Z,101915.22
2023-09-05T19:29:29.744Z,101912.03
2023-09-05T19:31:57.697Z,101908.28
2023-09-05T19:34:25.677Z,101914.78
2023-09-05T19:36:55.158Z,101900.19
2023-09-05T19:39:26.912Z,101909.41
2023-09-05T19:41:54.840Z,101909.06
2023-09-05T19:44:22.622Z,101909.06
2023-09-05T19:46:50.450Z,101907.84
2023-09-05T19:49:18.382Z,101911.75
2023-09-05T19:51:46.249Z,101913.63
2023-09-05T19:54:17.582Z,101913.34
2023-09-05T19:56:45.445Z,101917.63
2023-09-05T19:59:13.285Z,101913.25
2023-09-05T20:01:41.084Z,101920.06
2023-09-05T20:04:09.136Z,101919.19
2023-09-05T20:06:38.010Z,101908.25
2023-09-05T20:09:08.048Z,101908.88
2023-09-05T20:11:37.716Z,101908.66
2023-09-05T20:14:05.745Z,101908.88
2023-09-05T20:16:33.584Z,101909.47
2023-09-05T20:19:09.165Z,101906.69
2023-09-05T20:21:37.593Z,101906.81
2023-09-05T20:24:06.405Z,101907.66
2023-09-05T20:26:34.167Z,101907.03
2023-09-05T20:29:03.706Z,101905.97
2023-09-05T20:31:31.656Z,101908.53
2023-09-05T20:33:59.501Z,101912.75
2023-09-05T20:36:27.403Z,101915.16
2023-09-05T20:38:55.168Z,101924.16
2023-09-05T20:41:25.228Z,101923.19
2023-09-05T20:43:53.675Z,101926.44
2023-09-05T20:46:23.726Z,101928.38
2023-09-05T20:48:51.757Z,101931.81
2023-09-05T20:51:19.747Z,101923.69
2023-09-05T20:53:47.672Z,101921.13
2023-09-05T20:56:17.202Z,101929.59
2023-09-05T20:58:44.992Z,101925.38
2023-09-05T21:01:14.887Z,101929.38
2023-09-05T21:03:44.263Z,101935.19
2023-09-05T21:06:13.535Z,101939.81
2023-09-05T21:08:41.813Z,101933.75
2023-09-05T21:11:11.065Z,101936.31
2023-09-05T21:13:38.911Z,101944.44
2023-09-05T21:16:09.496Z,101942.13
2023-09-05T21:18:39.043Z,101955.63
2023-09-05T21:21:10.367Z,101951.34
2023-09-05T21:23:38.719Z,101955.25
2023-09-05T21:26:06.788Z,101953.66
2023-09-05T21:28:34.782Z,101952.81
2023-09-05T21:31:02.835Z,101946.97
2023-09-05T21:33:31.821Z,101952.94
2023-09-05T21:35:59.702Z,101950.03
2023-09-05T21:38:29.008Z,101949.78
2023-09-05T21:40:57.516Z,101951.97
2023-09-05T21:43:25.368Z,101962.50
2023-09-05T21:45:53.295Z,101954.03
2023-09-05T21:48:22.039Z,101953.16
2023-09-05T21:50:49.849Z,101954.25
2023-09-05T21:53:17.760Z,101959.84
2023-09-05T21:55:46.909Z,101963.09
2023-09-05T21:58:14.632Z,101967.84
2023-09-05T22:00:44.069Z,101970.25
2023-09-05T22:03:12.413Z,101967.09
2023-09-05T22:05:40.451Z,101960.69
2023-09-05T22:08:08.810Z,101964.38
2023-09-05T22:10:36.648Z,101966.09
2023-09-05T22:13:06.472Z,101967.66
2023-09-05T22:15:35.621Z,101960.13
2023-09-05T22:18:04.114Z,101968.03
2023-09-05T22:20:41.133Z,101971.53
2023-09-05T22:23:13.712Z,101972.00
2023-09-05T22:25:42.964Z,101976.97
2023-09-05T22:28:12.268Z,101976.13
2023-09-05T22:30:40.851Z,101976.97
2023-09-05T22:33:10.041Z,101977.69
2023-09-05T22:35:37.963Z,101969.56
2023-09-05T22:38:06.419Z,101974.06
2023-09-05T22:40:34.196Z,101968.69
2023-09-05T22:43:05.780Z,101977.31
2023-09-05T22:45:35.091Z,101977.31
2023-09-05T22:48:03.672Z,101982.28
2023-09-05T22:50:31.746Z,101980.34
2023-09-05T22:53:00.028Z,101976.09
2023-09-05T22:55:38.664Z,101976.94
2023-09-05T22:58:06.951Z,101976.31
2023-09-05T23:00:39.375Z,101972.69
2023-09-05T23:03:08.074Z,101974.38
2023-09-05T23:05:36.105Z,101977.19
2023-09-05T23:08:04.272Z,101975.25
2023-09-05T23:10:32.198Z,101969.88
2023-09-05T23:13:00.026Z,101974.88
2023-09-05T23:15:27.947Z,101982.16
2023-09-05T23:17:57.324Z,101976.78
2023-09-05T23:20:25.723Z,101984.31
2023-09-05T23:22:53.515Z,101982.59
2023-09-05T23:25:23.457Z,101986.97
2023-09-05T23:27:52.095Z,101981.41
2023-09-05T23:30:20.063Z,101980.75
2023-09-05T23:32:47.982Z,101981.88
2023-09-05T23:35:19.489Z,101976.75
2023-09-05T23:37:47.271Z,101978.69
2023-09-05T23:40:17.723Z,101981.72
2023-09-05T23:42:45.799Z,101989.69
2023-09-05T23:45:16.783Z,101979.00
2023-09-05T23:47:48.347Z,101977.31
2023-09-05T23:50:19.914Z,101981.41
2023-09-05T23:52:50.100Z,101972.69
2023-09-05T23:55:19.332Z,101975.09
2023-09-05T23:57:47.381Z,101971.81
